NCAR-RAP Real-Time Weather Data

Output produced by METARs form (19 November 2017  19:47 UTC)
found at http://weather.rap.ucar.edu/surface/
 
Conditions at: KSDF observed 19 November 2017  18:56 UTC
Temperature: 4.4°C (40°F)
Dewpoint: -2.2°C (28°F) [RH = 62%]
Pressure (altimeter): 30.09 inches Hg (1019.0 mb)
[Sea-level pressure: 1019.1 mb]
Winds: from the WNW (290 degrees) at 13 MPH (11 knots; 5.7 m/s)
Visibility: 10 or more miles (16+ km)
Ceiling: 3100 feet AGL
Clouds: broken clouds at 3100 feet AGL
Present Weather: no significant weather observed at this time
KSDF 191856Z 29011KT 10SM BKN031 04/M02 A3009 RMK AO2 SLP191 T00441022